sensor_id;sensor_type;location;lat;lon;timestamp;P1;durP1;ratioP1;P2;durP2;ratioP2
54959;SDS011;40860;51.710;8.736;2023-02-20T00:03:18;16.30;;;12.23;;
54959;SDS011;40860;51.710;8.736;2023-02-20T00:07:22;18.60;;;13.57;;
54959;SDS011;40860;51.710;8.736;2023-02-20T00:11:25;21.30;;;15.20;;
54959;SDS011;40860;51.710;8.736;2023-02-20T00:15:28;20.98;;;14.77;;
54959;SDS011;40860;51.710;8.736;2023-02-20T00:19:31;23.50;;;15.52;;
54959;SDS011;40860;51.710;8.736;2023-02-20T00:23:35;23.38;;;16.63;;
54959;SDS011;40860;51.710;8.736;2023-02-20T00:27:37;24.05;;;17.58;;
54959;SDS011;40860;51.710;8.736;2023-02-20T00:31:41;25.75;;;18.67;;
54959;SDS011;40860;51.710;8.736;2023-02-20T00:35:44;24.88;;;17.65;;
54959;SDS011;40860;51.710;8.736;2023-02-20T00:39:48;27.20;;;18.58;;
54959;SDS011;40860;51.710;8.736;2023-02-20T00:43:51;26.17;;;18.77;;
54959;SDS011;40860;51.710;8.736;2023-02-20T00:47:53;26.35;;;18.60;;
54959;SDS011;40860;51.710;8.736;2023-02-20T00:51:57;27.35;;;18.50;;
54959;SDS011;40860;51.710;8.736;2023-02-20T00:56:03;30.23;;;19.85;;
54959;SDS011;40860;51.710;8.736;2023-02-20T01:00:08;29.15;;;20.05;;
54959;SDS011;40860;51.710;8.736;2023-02-20T01:04:17;25.63;;;18.85;;
54959;SDS011;40860;51.710;8.736;2023-02-20T01:08:21;26.65;;;18.85;;
54959;SDS011;40860;51.710;8.736;2023-02-20T01:12:25;31.25;;;20.30;;
54959;SDS011;40860;51.710;8.736;2023-02-20T01:16:27;28.70;;;19.52;;
54959;SDS011;40860;51.710;8.736;2023-02-20T01:20:30;28.13;;;17.98;;
54959;SDS011;40860;51.710;8.736;2023-02-20T01:24:33;25.45;;;17.83;;
54959;SDS011;40860;51.710;8.736;2023-02-20T01:28:38;27.02;;;18.00;;
54959;SDS011;40860;51.710;8.736;2023-02-20T01:32:40;21.85;;;15.02;;
54959;SDS011;40860;51.710;8.736;2023-02-20T01:36:46;21.95;;;14.82;;
54959;SDS011;40860;51.710;8.736;2023-02-20T01:40:50;18.90;;;13.02;;
54959;SDS011;40860;51.710;8.736;2023-02-20T01:44:54;16.85;;;11.82;;
54959;SDS011;40860;51.710;8.736;2023-02-20T01:48:57;15.65;;;11.10;;
54959;SDS011;40860;51.710;8.736;2023-02-20T01:53:05;14.48;;;9.65;;
54959;SDS011;40860;51.710;8.736;2023-02-20T01:57:13;11.13;;;8.05;;
54959;SDS011;40860;51.710;8.736;2023-02-20T02:01:21;12.23;;;8.10;;
54959;SDS011;40860;51.710;8.736;2023-02-20T02:05:24;10.68;;;7.82;;
54959;SDS011;40860;51.710;8.736;2023-02-20T02:09:32;10.57;;;7.40;;
54959;SDS011;40860;51.710;8.736;2023-02-20T02:13:41;12.57;;;7.85;;
54959;SDS011;40860;51.710;8.736;2023-02-20T02:18:01;12.23;;;7.97;;
54959;SDS011;40860;51.710;8.736;2023-02-20T02:22:43;11.00;;;7.68;;
54959;SDS011;40860;51.710;8.736;2023-02-20T02:27:18;12.25;;;7.35;;
54959;SDS011;40860;51.710;8.736;2023-02-20T02:31:57;11.05;;;7.80;;
54959;SDS011;40860;51.710;8.736;2023-02-20T02:36:34;13.00;;;8.23;;
54959;SDS011;40860;51.710;8.736;2023-02-20T02:40:40;12.40;;;7.95;;
54959;SDS011;40860;51.710;8.736;2023-02-20T02:44:51;11.68;;;7.82;;
54959;SDS011;40860;51.710;8.736;2023-02-20T02:48:59;12.73;;;8.30;;
54959;SDS011;40860;51.710;8.736;2023-02-20T02:53:09;12.63;;;8.75;;
54959;SDS011;40860;51.710;8.736;2023-02-20T02:57:16;13.40;;;8.88;;
54959;SDS011;40860;51.710;8.736;2023-02-20T03:01:22;12.85;;;8.23;;
54959;SDS011;40860;51.710;8.736;2023-02-20T03:05:26;13.18;;;8.68;;
54959;SDS011;40860;51.710;8.736;2023-02-20T03:09:42;12.55;;;8.88;;
54959;SDS011;40860;51.710;8.736;2023-02-20T03:13:50;10.38;;;7.72;;
54959;SDS011;40860;51.710;8.736;2023-02-20T03:18:16;11.80;;;7.88;;
54959;SDS011;40860;51.710;8.736;2023-02-20T03:22:29;10.48;;;8.00;;
54959;SDS011;40860;51.710;8.736;2023-02-20T03:26:37;12.98;;;8.82;;
54959;SDS011;40860;51.710;8.736;2023-02-20T03:30:45;13.88;;;9.80;;
54959;SDS011;40860;51.710;8.736;2023-02-20T03:34:51;13.20;;;9.30;;
54959;SDS011;40860;51.710;8.736;2023-02-20T03:39:14;14.10;;;10.38;;
54959;SDS011;40860;51.710;8.736;2023-02-20T03:43:41;16.17;;;10.07;;
54959;SDS011;40860;51.710;8.736;2023-02-20T03:47:46;19.60;;;11.73;;
54959;SDS011;40860;51.710;8.736;2023-02-20T03:51:54;17.80;;;11.05;;
54959;SDS011;40860;51.710;8.736;2023-02-20T03:56:13;18.52;;;11.20;;
54959;SDS011;40860;51.710;8.736;2023-02-20T04:00:22;20.73;;;11.85;;
54959;SDS011;40860;51.710;8.736;2023-02-20T04:04:29;21.13;;;12.52;;
54959;SDS011;40860;51.710;8.736;2023-02-20T04:08:36;17.67;;;12.18;;
54959;SDS011;40860;51.710;8.736;2023-02-20T04:12:45;18.13;;;12.10;;
54959;SDS011;40860;51.710;8.736;2023-02-20T04:16:53;20.92;;;12.30;;
54959;SDS011;40860;51.710;8.736;2023-02-20T04:21:00;19.42;;;13.15;;
54959;SDS011;40860;51.710;8.736;2023-02-20T04:25:12;23.30;;;13.60;;
54959;SDS011;40860;51.710;8.736;2023-02-20T04:29:21;18.98;;;12.50;;
54959;SDS011;40860;51.710;8.736;2023-02-20T04:33:25;21.25;;;14.00;;
54959;SDS011;40860;51.710;8.736;2023-02-20T04:37:34;21.63;;;13.15;;
54959;SDS011;40860;51.710;8.736;2023-02-20T04:41:38;22.13;;;13.95;;
54959;SDS011;40860;51.710;8.736;2023-02-20T04:45:41;19.42;;;13.23;;
54959;SDS011;40860;51.710;8.736;2023-02-20T04:49:47;17.83;;;13.20;;
54959;SDS011;40860;51.710;8.736;2023-02-20T04:53:54;22.40;;;13.60;;
54959;SDS011;40860;51.710;8.736;2023-02-20T04:57:58;20.23;;;14.15;;
54959;SDS011;40860;51.710;8.736;2023-02-20T05:02:07;21.35;;;13.65;;
54959;SDS011;40860;51.710;8.736;2023-02-20T05:06:12;17.73;;;12.88;;
54959;SDS011;40860;51.710;8.736;2023-02-20T05:10:16;19.35;;;13.18;;
54959;SDS011;40860;51.710;8.736;2023-02-20T05:14:21;18.75;;;12.00;;
54959;SDS011;40860;51.710;8.736;2023-02-20T05:18:24;20.42;;;12.40;;
54959;SDS011;40860;51.710;8.736;2023-02-20T05:22:28;19.02;;;11.18;;
54959;SDS011;40860;51.710;8.736;2023-02-20T05:26:31;17.60;;;12.10;;
54959;SDS011;40860;51.710;8.736;2023-02-20T05:30:34;16.73;;;10.88;;
54959;SDS011;40860;51.710;8.736;2023-02-20T05:34:36;15.18;;;10.73;;
54959;SDS011;40860;51.710;8.736;2023-02-20T05:38:40;15.45;;;9.68;;
54959;SDS011;40860;51.710;8.736;2023-02-20T05:42:47;14.30;;;8.95;;
54959;SDS011;40860;51.710;8.736;2023-02-20T05:46:50;12.20;;;7.95;;
54959;SDS011;40860;51.710;8.736;2023-02-20T05:50:54;11.15;;;7.80;;
54959;SDS011;40860;51.710;8.736;2023-02-20T05:54:58;11.40;;;7.38;;
54959;SDS011;40860;51.710;8.736;2023-02-20T05:59:01;10.45;;;6.75;;
54959;SDS011;40860;51.710;8.736;2023-02-20T06:03:05;10.55;;;5.72;;
54959;SDS011;40860;51.710;8.736;2023-02-20T06:07:08;9.95;;;5.68;;
54959;SDS011;40860;51.710;8.736;2023-02-20T06:11:13;9.05;;;4.93;;
54959;SDS011;40860;51.710;8.736;2023-02-20T06:15:16;8.32;;;4.88;;
54959;SDS011;40860;51.710;8.736;2023-02-20T06:19:19;7.68;;;5.00;;
54959;SDS011;40860;51.710;8.736;2023-02-20T06:23:24;10.30;;;5.40;;
54959;SDS011;40860;51.710;8.736;2023-02-20T06:27:28;10.57;;;4.88;;
54959;SDS011;40860;51.710;8.736;2023-02-20T06:31:30;10.00;;;4.82;;
54959;SDS011;40860;51.710;8.736;2023-02-20T06:35:34;7.53;;;4.65;;
54959;SDS011;40860;51.710;8.736;2023-02-20T06:39:38;11.55;;;4.15;;
54959;SDS011;40860;51.710;8.736;2023-02-20T06:43:44;6.85;;;4.22;;
54959;SDS011;40860;51.710;8.736;2023-02-20T06:47:47;9.80;;;4.50;;
54959;SDS011;40860;51.710;8.736;2023-02-20T06:51:51;7.03;;;4.15;;
54959;SDS011;40860;51.710;8.736;2023-02-20T06:55:55;7.25;;;4.00;;
54959;SDS011;40860;51.710;8.736;2023-02-20T06:59:59;6.85;;;4.05;;
54959;SDS011;40860;51.710;8.736;2023-02-20T07:04:02;7.38;;;4.28;;
54959;SDS011;40860;51.710;8.736;2023-02-20T07:08:05;7.97;;;3.78;;
54959;SDS011;40860;51.710;8.736;2023-02-20T07:12:07;7.18;;;4.00;;
54959;SDS011;40860;51.710;8.736;2023-02-20T07:16:12;7.43;;;4.40;;
54959;SDS011;40860;51.710;8.736;2023-02-20T07:20:16;5.60;;;3.20;;
54959;SDS011;40860;51.710;8.736;2023-02-20T07:24:19;6.60;;;3.60;;
54959;SDS011;40860;51.710;8.736;2023-02-20T07:28:22;7.47;;;3.47;;
54959;SDS011;40860;51.710;8.736;2023-02-20T07:32:30;6.90;;;4.00;;
54959;SDS011;40860;51.710;8.736;2023-02-20T07:36:33;8.80;;;4.38;;
54959;SDS011;40860;51.710;8.736;2023-02-20T07:40:36;10.55;;;4.32;;
54959;SDS011;40860;51.710;8.736;2023-02-20T07:44:42;8.27;;;4.55;;
54959;SDS011;40860;51.710;8.736;2023-02-20T07:48:48;7.22;;;4.57;;
54959;SDS011;40860;51.710;8.736;2023-02-20T07:52:51;7.15;;;4.68;;
54959;SDS011;40860;51.710;8.736;2023-02-20T07:56:54;9.05;;;4.72;;
54959;SDS011;40860;51.710;8.736;2023-02-20T08:00:57;8.75;;;4.70;;
54959;SDS011;40860;51.710;8.736;2023-02-20T08:05:01;11.02;;;5.28;;
54959;SDS011;40860;51.710;8.736;2023-02-20T08:09:04;11.32;;;5.90;;
54959;SDS011;40860;51.710;8.736;2023-02-20T08:13:07;12.43;;;5.90;;
54959;SDS011;40860;51.710;8.736;2023-02-20T08:17:10;9.07;;;6.22;;
54959;SDS011;40860;51.710;8.736;2023-02-20T08:21:14;9.05;;;5.85;;
54959;SDS011;40860;51.710;8.736;2023-02-20T08:25:17;9.80;;;6.82;;
54959;SDS011;40860;51.710;8.736;2023-02-20T08:29:20;15.40;;;7.82;;
54959;SDS011;40860;51.710;8.736;2023-02-20T08:33:23;14.00;;;8.02;;
54959;SDS011;40860;51.710;8.736;2023-02-20T08:37:27;11.65;;;8.07;;
54959;SDS011;40860;51.710;8.736;2023-02-20T08:41:30;11.10;;;8.00;;
54959;SDS011;40860;51.710;8.736;2023-02-20T08:45:33;12.75;;;8.60;;
54959;SDS011;40860;51.710;8.736;2023-02-20T08:49:36;10.05;;;7.60;;
54959;SDS011;40860;51.710;8.736;2023-02-20T08:53:40;12.63;;;8.82;;
54959;SDS011;40860;51.710;8.736;2023-02-20T08:57:43;10.25;;;9.00;;
54959;SDS011;40860;51.710;8.736;2023-02-20T09:01:46;14.38;;;9.20;;
54959;SDS011;40860;51.710;8.736;2023-02-20T09:05:49;13.13;;;8.52;;
54959;SDS011;40860;51.710;8.736;2023-02-20T09:09:53;12.48;;;9.27;;
54959;SDS011;40860;51.710;8.736;2023-02-20T09:13:56;16.10;;;9.02;;
54959;SDS011;40860;51.710;8.736;2023-02-20T09:17:59;15.95;;;9.13;;
54959;SDS011;40860;51.710;8.736;2023-02-20T09:22:02;13.75;;;9.10;;
54959;SDS011;40860;51.710;8.736;2023-02-20T09:26:06;14.48;;;9.32;;
54959;SDS011;40860;51.710;8.736;2023-02-20T09:30:13;11.18;;;9.48;;
54959;SDS011;40860;51.710;8.736;2023-02-20T09:34:19;13.40;;;9.48;;
54959;SDS011;40860;51.710;8.736;2023-02-20T09:38:22;12.95;;;9.35;;
54959;SDS011;40860;51.710;8.736;2023-02-20T09:42:31;13.18;;;10.07;;
54959;SDS011;40860;51.710;8.736;2023-02-20T09:46:43;14.60;;;10.18;;
54959;SDS011;40860;51.710;8.736;2023-02-20T09:50:50;16.38;;;10.25;;
54959;SDS011;40860;51.710;8.736;2023-02-20T09:54:57;12.18;;;10.00;;
54959;SDS011;40860;51.710;8.736;2023-02-20T09:59:08;16.15;;;10.57;;
54959;SDS011;40860;51.710;8.736;2023-02-20T10:03:17;15.65;;;10.57;;
54959;SDS011;40860;51.710;8.736;2023-02-20T10:07:27;12.90;;;10.35;;
54959;SDS011;40860;51.710;8.736;2023-02-20T10:11:52;11.98;;;10.05;;
54959;SDS011;40860;51.710;8.736;2023-02-20T10:16:14;16.45;;;9.45;;
54959;SDS011;40860;51.710;8.736;2023-02-20T10:20:26;15.63;;;10.05;;
54959;SDS011;40860;51.710;8.736;2023-02-20T10:24:41;13.82;;;9.88;;
54959;SDS011;40860;51.710;8.736;2023-02-20T10:28:54;13.18;;;9.23;;
54959;SDS011;40860;51.710;8.736;2023-02-20T10:33:03;13.45;;;9.50;;
54959;SDS011;40860;51.710;8.736;2023-02-20T10:37:25;11.73;;;8.82;;
54959;SDS011;40860;51.710;8.736;2023-02-20T10:41:48;15.18;;;9.43;;
54959;SDS011;40860;51.710;8.736;2023-02-20T10:45:57;12.80;;;9.10;;
54959;SDS011;40860;51.710;8.736;2023-02-20T10:50:11;15.85;;;9.20;;
54959;SDS011;40860;51.710;8.736;2023-02-20T10:54:19;11.57;;;9.13;;
54959;SDS011;40860;51.710;8.736;2023-02-20T10:58:26;10.27;;;8.05;;
54959;SDS011;40860;51.710;8.736;2023-02-20T11:02:35;12.25;;;9.20;;
54959;SDS011;40860;51.710;8.736;2023-02-20T11:06:43;12.07;;;9.18;;
54959;SDS011;40860;51.710;8.736;2023-02-20T11:10:48;11.35;;;8.65;;
54959;SDS011;40860;51.710;8.736;2023-02-20T11:14:54;11.00;;;8.52;;
54959;SDS011;40860;51.710;8.736;2023-02-20T11:19:02;11.27;;;8.57;;
54959;SDS011;40860;51.710;8.736;2023-02-20T11:27:37;10.00;;;8.55;;
54959;SDS011;40860;51.710;8.736;2023-02-20T11:31:51;10.95;;;9.05;;
54959;SDS011;40860;51.710;8.736;2023-02-20T11:35:55;16.33;;;9.77;;
54959;SDS011;40860;51.710;8.736;2023-02-20T11:40:01;11.55;;;9.15;;
54959;SDS011;40860;51.710;8.736;2023-02-20T11:48:34;14.40;;;9.60;;
54959;SDS011;40860;51.710;8.736;2023-02-20T11:52:54;14.80;;;10.35;;
54959;SDS011;40860;51.710;8.736;2023-02-20T11:57:05;14.95;;;10.20;;
54959;SDS011;40860;51.710;8.736;2023-02-20T12:01:27;13.30;;;10.70;;
54959;SDS011;40860;51.710;8.736;2023-02-20T12:05:36;14.02;;;10.48;;
54959;SDS011;40860;51.710;8.736;2023-02-20T12:09:40;13.77;;;10.63;;
54959;SDS011;40860;51.710;8.736;2023-02-20T12:13:47;15.80;;;10.63;;
54959;SDS011;40860;51.710;8.736;2023-02-20T12:17:58;17.42;;;10.73;;
54959;SDS011;40860;51.710;8.736;2023-02-20T12:22:14;17.08;;;11.10;;
54959;SDS011;40860;51.710;8.736;2023-02-20T12:26:30;14.93;;;11.18;;
54959;SDS011;40860;51.710;8.736;2023-02-20T12:30:50;17.67;;;10.88;;
54959;SDS011;40860;51.710;8.736;2023-02-20T12:35:12;15.52;;;11.32;;
54959;SDS011;40860;51.710;8.736;2023-02-20T12:39:27;16.42;;;11.52;;
54959;SDS011;40860;51.710;8.736;2023-02-20T12:43:54;16.33;;;11.65;;
54959;SDS011;40860;51.710;8.736;2023-02-20T12:48:21;17.08;;;12.07;;
54959;SDS011;40860;51.710;8.736;2023-02-20T12:52:36;18.63;;;11.68;;
54959;SDS011;40860;51.710;8.736;2023-02-20T12:56:57;18.73;;;11.95;;
54959;SDS011;40860;51.710;8.736;2023-02-20T13:01:08;22.88;;;13.40;;
54959;SDS011;40860;51.710;8.736;2023-02-20T13:05:15;21.80;;;12.45;;
54959;SDS011;40860;51.710;8.736;2023-02-20T13:09:22;19.35;;;12.20;;
54959;SDS011;40860;51.710;8.736;2023-02-20T13:13:28;21.35;;;12.75;;
54959;SDS011;40860;51.710;8.736;2023-02-20T13:17:41;16.35;;;11.43;;
54959;SDS011;40860;51.710;8.736;2023-02-20T13:21:49;18.98;;;11.85;;
54959;SDS011;40860;51.710;8.736;2023-02-20T13:25:54;21.52;;;13.18;;
54959;SDS011;40860;51.710;8.736;2023-02-20T13:29:58;19.83;;;12.70;;
54959;SDS011;40860;51.710;8.736;2023-02-20T13:38:30;18.65;;;12.15;;
54959;SDS011;40860;51.710;8.736;2023-02-20T13:42:34;24.90;;;13.80;;
54959;SDS011;40860;51.710;8.736;2023-02-20T13:55:37;20.48;;;13.18;;
54959;SDS011;40860;51.710;8.736;2023-02-20T13:59:40;19.00;;;11.95;;
54959;SDS011;40860;51.710;8.736;2023-02-20T14:03:43;18.70;;;11.80;;
54959;SDS011;40860;51.710;8.736;2023-02-20T14:07:47;18.05;;;12.50;;
54959;SDS011;40860;51.710;8.736;2023-02-20T14:11:51;18.73;;;11.88;;
54959;SDS011;40860;51.710;8.736;2023-02-20T14:15:56;18.55;;;12.02;;
54959;SDS011;40860;51.710;8.736;2023-02-20T14:20:00;20.35;;;12.48;;
54959;SDS011;40860;51.710;8.736;2023-02-20T14:24:19;21.50;;;11.82;;
54959;SDS011;40860;51.710;8.736;2023-02-20T14:28:28;18.75;;;12.25;;
54959;SDS011;40860;51.710;8.736;2023-02-20T14:32:33;14.50;;;11.00;;
54959;SDS011;40860;51.710;8.736;2023-02-20T14:36:45;20.50;;;13.15;;
54959;SDS011;40860;51.710;8.736;2023-02-20T14:41:00;20.40;;;11.63;;
54959;SDS011;40860;51.710;8.736;2023-02-20T14:45:15;18.95;;;11.95;;
54959;SDS011;40860;51.710;8.736;2023-02-20T14:49:22;20.73;;;13.25;;
54959;SDS011;40860;51.710;8.736;2023-02-20T14:53:26;20.13;;;13.25;;
54959;SDS011;40860;51.710;8.736;2023-02-20T14:57:30;21.73;;;13.85;;
54959;SDS011;40860;51.710;8.736;2023-02-20T15:01:35;23.05;;;13.70;;
54959;SDS011;40860;51.710;8.736;2023-02-20T15:05:40;21.08;;;13.50;;
54959;SDS011;40860;51.710;8.736;2023-02-20T15:09:45;23.42;;;14.15;;
54959;SDS011;40860;51.710;8.736;2023-02-20T15:13:51;25.85;;;15.63;;
54959;SDS011;40860;51.710;8.736;2023-02-20T15:18:05;23.10;;;15.23;;
54959;SDS011;40860;51.710;8.736;2023-02-20T15:22:20;21.33;;;13.75;;
54959;SDS011;40860;51.710;8.736;2023-02-20T15:26:30;28.38;;;15.13;;
54959;SDS011;40860;51.710;8.736;2023-02-20T15:30:49;27.10;;;14.93;;
54959;SDS011;40860;51.710;8.736;2023-02-20T15:35:16;24.08;;;15.55;;
54959;SDS011;40860;51.710;8.736;2023-02-20T15:39:21;24.48;;;15.82;;
54959;SDS011;40860;51.710;8.736;2023-02-20T15:43:25;27.27;;;16.90;;
54959;SDS011;40860;51.710;8.736;2023-02-20T15:47:48;24.00;;;15.63;;
54959;SDS011;40860;51.710;8.736;2023-02-20T15:51:53;24.42;;;15.55;;
54959;SDS011;40860;51.710;8.736;2023-02-20T15:56:13;22.10;;;15.07;;
54959;SDS011;40860;51.710;8.736;2023-02-20T16:00:18;24.58;;;14.65;;
54959;SDS011;40860;51.710;8.736;2023-02-20T16:04:24;27.55;;;15.18;;
54959;SDS011;40860;51.710;8.736;2023-02-20T16:08:28;24.65;;;14.70;;
54959;SDS011;40860;51.710;8.736;2023-02-20T16:12:31;24.48;;;15.40;;
54959;SDS011;40860;51.710;8.736;2023-02-20T16:16:36;21.33;;;13.25;;
54959;SDS011;40860;51.710;8.736;2023-02-20T16:20:44;22.75;;;15.43;;
54959;SDS011;40860;51.710;8.736;2023-02-20T16:24:48;24.90;;;15.05;;
54959;SDS011;40860;51.710;8.736;2023-02-20T16:28:54;21.35;;;14.65;;
54959;SDS011;40860;51.710;8.736;2023-02-20T16:33:00;25.20;;;14.98;;
54959;SDS011;40860;51.710;8.736;2023-02-20T16:37:04;24.95;;;15.00;;
54959;SDS011;40860;51.710;8.736;2023-02-20T16:41:13;26.23;;;15.55;;
54959;SDS011;40860;51.710;8.736;2023-02-20T16:45:18;25.65;;;16.00;;
54959;SDS011;40860;51.710;8.736;2023-02-20T16:49:22;23.05;;;14.88;;
54959;SDS011;40860;51.710;8.736;2023-02-20T16:53:27;26.33;;;16.40;;
54959;SDS011;40860;51.710;8.736;2023-02-20T16:57:51;25.08;;;15.73;;
54959;SDS011;40860;51.710;8.736;2023-02-20T17:01:55;27.75;;;16.75;;
54959;SDS011;40860;51.710;8.736;2023-02-20T17:06:05;27.00;;;16.98;;
54959;SDS011;40860;51.710;8.736;2023-02-20T17:10:08;28.58;;;16.58;;
54959;SDS011;40860;51.710;8.736;2023-02-20T17:14:12;27.42;;;18.02;;
54959;SDS011;40860;51.710;8.736;2023-02-20T17:18:15;31.83;;;17.25;;
54959;SDS011;40860;51.710;8.736;2023-02-20T17:22:18;31.23;;;18.13;;
54959;SDS011;40860;51.710;8.736;2023-02-20T17:26:23;34.03;;;18.02;;
54959;SDS011;40860;51.710;8.736;2023-02-20T17:30:28;33.92;;;18.20;;
54959;SDS011;40860;51.710;8.736;2023-02-20T17:34:31;32.65;;;18.80;;
54959;SDS011;40860;51.710;8.736;2023-02-20T17:38:34;30.05;;;18.85;;
54959;SDS011;40860;51.710;8.736;2023-02-20T17:42:37;31.63;;;19.25;;
54959;SDS011;40860;51.710;8.736;2023-02-20T17:46:41;29.48;;;18.35;;
54959;SDS011;40860;51.710;8.736;2023-02-20T17:50:44;32.47;;;18.50;;
54959;SDS011;40860;51.710;8.736;2023-02-20T17:54:48;36.03;;;19.55;;
54959;SDS011;40860;51.710;8.736;2023-02-20T17:58:52;32.60;;;19.45;;
54959;SDS011;40860;51.710;8.736;2023-02-20T18:02:56;37.03;;;19.67;;
54959;SDS011;40860;51.710;8.736;2023-02-20T18:06:59;36.05;;;20.52;;
54959;SDS011;40860;51.710;8.736;2023-02-20T18:11:02;34.30;;;19.77;;
54959;SDS011;40860;51.710;8.736;2023-02-20T18:15:05;34.42;;;18.70;;
54959;SDS011;40860;51.710;8.736;2023-02-20T18:19:11;36.15;;;19.58;;
54959;SDS011;40860;51.710;8.736;2023-02-20T18:23:15;32.17;;;19.10;;
54959;SDS011;40860;51.710;8.736;2023-02-20T18:27:18;34.55;;;19.30;;
54959;SDS011;40860;51.710;8.736;2023-02-20T18:31:21;32.38;;;19.63;;
54959;SDS011;40860;51.710;8.736;2023-02-20T18:35:26;33.97;;;19.77;;
54959;SDS011;40860;51.710;8.736;2023-02-20T18:39:29;30.00;;;18.73;;
54959;SDS011;40860;51.710;8.736;2023-02-20T18:43:32;35.38;;;20.13;;
54959;SDS011;40860;51.710;8.736;2023-02-20T18:47:34;32.92;;;19.77;;
54959;SDS011;40860;51.710;8.736;2023-02-20T18:51:41;31.33;;;19.77;;
54959;SDS011;40860;51.710;8.736;2023-02-20T18:55:45;33.40;;;19.85;;
54959;SDS011;40860;51.710;8.736;2023-02-20T18:59:48;36.53;;;20.67;;
54959;SDS011;40860;51.710;8.736;2023-02-20T19:03:51;33.88;;;20.80;;
54959;SDS011;40860;51.710;8.736;2023-02-20T19:07:56;33.15;;;19.70;;
54959;SDS011;40860;51.710;8.736;2023-02-20T19:12:00;38.53;;;21.90;;
54959;SDS011;40860;51.710;8.736;2023-02-20T19:16:05;36.05;;;20.98;;
54959;SDS011;40860;51.710;8.736;2023-02-20T19:20:13;32.28;;;20.50;;
54959;SDS011;40860;51.710;8.736;2023-02-20T19:24:19;35.42;;;21.60;;
54959;SDS011;40860;51.710;8.736;2023-02-20T19:28:23;36.67;;;20.85;;
54959;SDS011;40860;51.710;8.736;2023-02-20T19:32:27;33.75;;;21.23;;
54959;SDS011;40860;51.710;8.736;2023-02-20T19:36:30;36.75;;;21.27;;
54959;SDS011;40860;51.710;8.736;2023-02-20T19:40:34;36.50;;;22.35;;
54959;SDS011;40860;51.710;8.736;2023-02-20T19:44:37;37.47;;;21.85;;
54959;SDS011;40860;51.710;8.736;2023-02-20T19:48:40;36.55;;;22.13;;
54959;SDS011;40860;51.710;8.736;2023-02-20T19:52:45;38.97;;;23.50;;
54959;SDS011;40860;51.710;8.736;2023-02-20T19:56:50;38.63;;;22.92;;
54959;SDS011;40860;51.710;8.736;2023-02-20T20:00:55;39.55;;;25.17;;
54959;SDS011;40860;51.710;8.736;2023-02-20T20:04:59;42.03;;;24.10;;
54959;SDS011;40860;51.710;8.736;2023-02-20T20:09:02;41.40;;;24.10;;
54959;SDS011;40860;51.710;8.736;2023-02-20T20:13:19;43.13;;;25.05;;
54959;SDS011;40860;51.710;8.736;2023-02-20T20:17:24;42.05;;;24.00;;
54959;SDS011;40860;51.710;8.736;2023-02-20T20:21:27;45.55;;;25.25;;
54959;SDS011;40860;51.710;8.736;2023-02-20T20:25:30;46.22;;;26.13;;
54959;SDS011;40860;51.710;8.736;2023-02-20T20:29:34;44.33;;;25.92;;
54959;SDS011;40860;51.710;8.736;2023-02-20T20:33:40;46.05;;;24.98;;
54959;SDS011;40860;51.710;8.736;2023-02-20T20:37:43;43.15;;;26.85;;
54959;SDS011;40860;51.710;8.736;2023-02-20T20:41:47;50.08;;;26.92;;
54959;SDS011;40860;51.710;8.736;2023-02-20T20:45:51;44.97;;;27.33;;
54959;SDS011;40860;51.710;8.736;2023-02-20T20:49:54;47.47;;;25.65;;
54959;SDS011;40860;51.710;8.736;2023-02-20T20:53:57;48.75;;;27.10;;
54959;SDS011;40860;51.710;8.736;2023-02-20T20:58:00;48.90;;;26.63;;
54959;SDS011;40860;51.710;8.736;2023-02-20T21:02:04;46.38;;;25.70;;
54959;SDS011;40860;51.710;8.736;2023-02-20T21:06:07;45.40;;;25.70;;
54959;SDS011;40860;51.710;8.736;2023-02-20T21:10:10;46.38;;;25.52;;
54959;SDS011;40860;51.710;8.736;2023-02-20T21:14:14;41.85;;;24.75;;
54959;SDS011;40860;51.710;8.736;2023-02-20T21:18:19;43.53;;;26.08;;
54959;SDS011;40860;51.710;8.736;2023-02-20T21:22:22;44.05;;;25.42;;
54959;SDS011;40860;51.710;8.736;2023-02-20T21:26:25;43.22;;;27.63;;
54959;SDS011;40860;51.710;8.736;2023-02-20T21:30:28;44.50;;;26.70;;
54959;SDS011;40860;51.710;8.736;2023-02-20T21:34:33;45.35;;;27.25;;
54959;SDS011;40860;51.710;8.736;2023-02-20T21:38:37;43.90;;;26.48;;
54959;SDS011;40860;51.710;8.736;2023-02-20T21:42:40;44.33;;;26.90;;
54959;SDS011;40860;51.710;8.736;2023-02-20T21:47:01;43.45;;;25.05;;
54959;SDS011;40860;51.710;8.736;2023-02-20T21:51:08;40.75;;;25.45;;
54959;SDS011;40860;51.710;8.736;2023-02-20T21:55:13;43.97;;;26.27;;
54959;SDS011;40860;51.710;8.736;2023-02-20T21:59:17;44.33;;;26.95;;
54959;SDS011;40860;51.710;8.736;2023-02-20T22:03:19;44.85;;;26.38;;
54959;SDS011;40860;51.710;8.736;2023-02-20T22:07:22;42.33;;;25.52;;
54959;SDS011;40860;51.710;8.736;2023-02-20T22:11:43;42.22;;;26.00;;
54959;SDS011;40860;51.710;8.736;2023-02-20T22:16:03;40.35;;;25.23;;
54959;SDS011;40860;51.710;8.736;2023-02-20T22:20:24;43.95;;;26.08;;
54959;SDS011;40860;51.710;8.736;2023-02-20T22:24:46;42.17;;;24.67;;
54959;SDS011;40860;51.710;8.736;2023-02-20T22:29:06;41.15;;;24.85;;
54959;SDS011;40860;51.710;8.736;2023-02-20T22:33:27;43.78;;;25.67;;
54959;SDS011;40860;51.710;8.736;2023-02-20T22:37:47;40.35;;;24.50;;
54959;SDS011;40860;51.710;8.736;2023-02-20T22:42:09;37.08;;;24.90;;
54959;SDS011;40860;51.710;8.736;2023-02-20T22:46:35;40.05;;;24.35;;
54959;SDS011;40860;51.710;8.736;2023-02-20T22:50:55;38.75;;;24.98;;
54959;SDS011;40860;51.710;8.736;2023-02-20T22:55:16;46.70;;;24.95;;
54959;SDS011;40860;51.710;8.736;2023-02-20T22:59:38;39.03;;;23.52;;
54959;SDS011;40860;51.710;8.736;2023-02-20T23:03:59;39.42;;;24.83;;
54959;SDS011;40860;51.710;8.736;2023-02-20T23:08:20;41.05;;;24.63;;
54959;SDS011;40860;51.710;8.736;2023-02-20T23:12:40;39.15;;;23.95;;
54959;SDS011;40860;51.710;8.736;2023-02-20T23:17:02;38.42;;;25.52;;
54959;SDS011;40860;51.710;8.736;2023-02-20T23:21:36;40.22;;;23.90;;
54959;SDS011;40860;51.710;8.736;2023-02-20T23:25:57;44.63;;;26.08;;
54959;SDS011;40860;51.710;8.736;2023-02-20T23:30:21;39.35;;;25.90;;
54959;SDS011;40860;51.710;8.736;2023-02-20T23:34:51;40.30;;;25.45;;
54959;SDS011;40860;51.710;8.736;2023-02-20T23:39:49;41.92;;;26.52;;
54959;SDS011;40860;51.710;8.736;2023-02-20T23:44:51;43.55;;;26.92;;
54959;SDS011;40860;51.710;8.736;2023-02-20T23:50:01;40.40;;;25.20;;
54959;SDS011;40860;51.710;8.736;2023-02-20T23:54:22;40.80;;;24.95;;
